sensor_id;sensor_type;location;lat;lon;timestamp;P1;durP1;ratioP1;P2;durP2;ratioP2
71003;SDS011;59025;42.050;-8.660;2022-10-26T00:00:23;11.57;;;2.17;;
71003;SDS011;59025;42.050;-8.660;2022-10-26T00:02:52;12.65;;;2.05;;
71003;SDS011;59025;42.050;-8.660;2022-10-26T00:05:20;14.07;;;2.30;;
71003;SDS011;59025;42.050;-8.660;2022-10-26T00:07:47;11.90;;;1.88;;
71003;SDS011;59025;42.050;-8.660;2022-10-26T00:10:15;11.18;;;1.67;;
71003;SDS011;59025;42.050;-8.660;2022-10-26T00:12:47;9.48;;;1.90;;
71003;SDS011;59025;42.050;-8.660;2022-10-26T00:15:16;14.13;;;2.20;;
71003;SDS011;59025;42.050;-8.660;2022-10-26T00:17:44;10.07;;;2.20;;
71003;SDS011;59025;42.050;-8.660;2022-10-26T00:20:13;9.50;;;2.20;;
71003;SDS011;59025;42.050;-8.660;2022-10-26T00:22:41;12.80;;;1.98;;
71003;SDS011;59025;42.050;-8.660;2022-10-26T00:25:08;8.77;;;1.85;;
71003;SDS011;59025;42.050;-8.660;2022-10-26T00:27:36;9.45;;;2.80;;
71003;SDS011;59025;42.050;-8.660;2022-10-26T00:30:04;9.97;;;1.60;;
71003;SDS011;59025;42.050;-8.660;2022-10-26T00:32:33;9.40;;;1.63;;
71003;SDS011;59025;42.050;-8.660;2022-10-26T00:35:00;9.43;;;1.90;;
71003;SDS011;59025;42.050;-8.660;2022-10-26T00:37:29;12.85;;;1.70;;
71003;SDS011;59025;42.050;-8.660;2022-10-26T00:39:57;7.65;;;1.90;;
71003;SDS011;59025;42.050;-8.660;2022-10-26T00:42:24;12.33;;;1.70;;
71003;SDS011;59025;42.050;-8.660;2022-10-26T00:44:59;8.70;;;1.70;;
71003;SDS011;59025;42.050;-8.660;2022-10-26T00:47:35;9.95;;;1.40;;
71003;SDS011;59025;42.050;-8.660;2022-10-26T00:50:07;12.05;;;1.83;;
71003;SDS011;59025;42.050;-8.660;2022-10-26T00:52:38;9.55;;;1.60;;
71003;SDS011;59025;42.050;-8.660;2022-10-26T00:55:07;9.07;;;1.90;;
71003;SDS011;59025;42.050;-8.660;2022-10-26T00:57:35;14.98;;;2.20;;
71003;SDS011;59025;42.050;-8.660;2022-10-26T01:00:04;12.52;;;2.15;;
71003;SDS011;59025;42.050;-8.660;2022-10-26T01:02:33;15.50;;;2.55;;
71003;SDS011;59025;42.050;-8.660;2022-10-26T01:05:02;13.65;;;2.00;;
71003;SDS011;59025;42.050;-8.660;2022-10-26T01:07:30;18.10;;;2.80;;
71003;SDS011;59025;42.050;-8.660;2022-10-26T01:10:00;16.17;;;2.67;;
71003;SDS011;59025;42.050;-8.660;2022-10-26T01:12:27;20.38;;;2.22;;
71003;SDS011;59025;42.050;-8.660;2022-10-26T01:14:55;15.38;;;2.58;;
71003;SDS011;59025;42.050;-8.660;2022-10-26T01:17:35;16.33;;;2.08;;
71003;SDS011;59025;42.050;-8.660;2022-10-26T01:20:21;17.40;;;2.33;;
71003;SDS011;59025;42.050;-8.660;2022-10-26T01:23:09;13.55;;;2.60;;
71003;SDS011;59025;42.050;-8.660;2022-10-26T01:25:50;15.00;;;3.10;;
71003;SDS011;59025;42.050;-8.660;2022-10-26T01:28:45;19.23;;;2.80;;
71003;SDS011;59025;42.050;-8.660;2022-10-26T01:31:33;18.52;;;3.00;;
71003;SDS011;59025;42.050;-8.660;2022-10-26T01:34:08;13.90;;;3.20;;
71003;SDS011;59025;42.050;-8.660;2022-10-26T01:36:41;18.42;;;3.15;;
71003;SDS011;59025;42.050;-8.660;2022-10-26T01:39:14;17.40;;;2.70;;
71003;SDS011;59025;42.050;-8.660;2022-10-26T01:41:48;16.05;;;2.75;;
71003;SDS011;59025;42.050;-8.660;2022-10-26T01:44:17;14.32;;;2.90;;
71003;SDS011;59025;42.050;-8.660;2022-10-26T01:46:49;20.67;;;3.03;;
71003;SDS011;59025;42.050;-8.660;2022-10-26T01:49:20;15.40;;;2.78;;
71003;SDS011;59025;42.050;-8.660;2022-10-26T01:51:51;16.52;;;3.25;;
71003;SDS011;59025;42.050;-8.660;2022-10-26T01:54:19;23.58;;;3.42;;
71003;SDS011;59025;42.050;-8.660;2022-10-26T01:56:46;20.00;;;3.22;;
71003;SDS011;59025;42.050;-8.660;2022-10-26T01:59:36;17.17;;;2.83;;
71003;SDS011;59025;42.050;-8.660;2022-10-26T02:02:29;15.55;;;2.80;;
71003;SDS011;59025;42.050;-8.660;2022-10-26T02:05:22;13.57;;;2.45;;
71003;SDS011;59025;42.050;-8.660;2022-10-26T02:08:00;16.75;;;2.40;;
71003;SDS011;59025;42.050;-8.660;2022-10-26T02:10:43;14.38;;;2.50;;
71003;SDS011;59025;42.050;-8.660;2022-10-26T02:13:18;16.20;;;2.37;;
71003;SDS011;59025;42.050;-8.660;2022-10-26T02:15:58;9.10;;;2.10;;
71003;SDS011;59025;42.050;-8.660;2022-10-26T02:18:34;11.50;;;2.17;;
71003;SDS011;59025;42.050;-8.660;2022-10-26T02:21:08;10.38;;;1.90;;
71003;SDS011;59025;42.050;-8.660;2022-10-26T02:23:41;12.57;;;1.85;;
71003;SDS011;59025;42.050;-8.660;2022-10-26T02:26:12;7.70;;;2.07;;
71003;SDS011;59025;42.050;-8.660;2022-10-26T02:28:43;9.60;;;1.40;;
71003;SDS011;59025;42.050;-8.660;2022-10-26T02:31:14;6.32;;;1.10;;
71003;SDS011;59025;42.050;-8.660;2022-10-26T02:33:45;5.40;;;1.10;;
71003;SDS011;59025;42.050;-8.660;2022-10-26T02:36:15;3.08;;;0.85;;
71003;SDS011;59025;42.050;-8.660;2022-10-26T02:38:47;2.93;;;0.80;;
71003;SDS011;59025;42.050;-8.660;2022-10-26T02:41:18;6.88;;;1.20;;
71003;SDS011;59025;42.050;-8.660;2022-10-26T02:43:50;7.35;;;1.00;;
71003;SDS011;59025;42.050;-8.660;2022-10-26T02:46:20;7.28;;;1.08;;
71003;SDS011;59025;42.050;-8.660;2022-10-26T02:48:52;8.10;;;1.45;;
71003;SDS011;59025;42.050;-8.660;2022-10-26T02:51:22;7.30;;;2.30;;
71003;SDS011;59025;42.050;-8.660;2022-10-26T02:53:57;8.32;;;1.30;;
71003;SDS011;59025;42.050;-8.660;2022-10-26T02:56:30;7.88;;;1.42;;
71003;SDS011;59025;42.050;-8.660;2022-10-26T02:59:03;10.90;;;1.77;;
71003;SDS011;59025;42.050;-8.660;2022-10-26T03:01:33;8.73;;;1.55;;
71003;SDS011;59025;42.050;-8.660;2022-10-26T03:04:03;11.10;;;1.43;;
71003;SDS011;59025;42.050;-8.660;2022-10-26T03:06:31;8.52;;;1.90;;
71003;SDS011;59025;42.050;-8.660;2022-10-26T03:08:58;3.92;;;1.48;;
71003;SDS011;59025;42.050;-8.660;2022-10-26T03:11:26;10.75;;;1.83;;
71003;SDS011;59025;42.050;-8.660;2022-10-26T03:13:53;8.43;;;1.80;;
71003;SDS011;59025;42.050;-8.660;2022-10-26T03:16:21;10.50;;;1.93;;
71003;SDS011;59025;42.050;-8.660;2022-10-26T03:18:48;11.68;;;1.83;;
71003;SDS011;59025;42.050;-8.660;2022-10-26T03:21:17;8.20;;;1.40;;
71003;SDS011;59025;42.050;-8.660;2022-10-26T03:23:45;10.63;;;1.75;;
71003;SDS011;59025;42.050;-8.660;2022-10-26T03:26:14;9.50;;;1.88;;
71003;SDS011;59025;42.050;-8.660;2022-10-26T03:28:42;10.77;;;1.97;;
71003;SDS011;59025;42.050;-8.660;2022-10-26T03:31:10;9.55;;;2.05;;
71003;SDS011;59025;42.050;-8.660;2022-10-26T03:33:37;13.52;;;2.40;;
71003;SDS011;59025;42.050;-8.660;2022-10-26T03:36:05;6.53;;;2.45;;
71003;SDS011;59025;42.050;-8.660;2022-10-26T03:38:35;10.57;;;2.10;;
71003;SDS011;59025;42.050;-8.660;2022-10-26T03:41:02;12.77;;;1.80;;
71003;SDS011;59025;42.050;-8.660;2022-10-26T03:43:30;13.73;;;1.70;;
71003;SDS011;59025;42.050;-8.660;2022-10-26T03:45:58;9.38;;;1.98;;
71003;SDS011;59025;42.050;-8.660;2022-10-26T03:48:25;6.07;;;1.58;;
71003;SDS011;59025;42.050;-8.660;2022-10-26T03:50:56;9.38;;;1.90;;
71003;SDS011;59025;42.050;-8.660;2022-10-26T03:53:24;11.63;;;2.07;;
71003;SDS011;59025;42.050;-8.660;2022-10-26T03:55:53;8.73;;;1.80;;
71003;SDS011;59025;42.050;-8.660;2022-10-26T03:58:21;7.45;;;1.85;;
71003;SDS011;59025;42.050;-8.660;2022-10-26T04:00:48;9.27;;;1.80;;
71003;SDS011;59025;42.050;-8.660;2022-10-26T04:03:16;9.13;;;1.98;;
71003;SDS011;59025;42.050;-8.660;2022-10-26T04:05:43;18.87;;;2.60;;
71003;SDS011;59025;42.050;-8.660;2022-10-26T04:08:11;11.82;;;2.20;;
71003;SDS011;59025;42.050;-8.660;2022-10-26T04:10:38;14.20;;;2.50;;
71003;SDS011;59025;42.050;-8.660;2022-10-26T04:13:07;13.88;;;2.13;;
71003;SDS011;59025;42.050;-8.660;2022-10-26T04:15:36;12.20;;;2.10;;
71003;SDS011;59025;42.050;-8.660;2022-10-26T04:18:04;11.53;;;3.37;;
71003;SDS011;59025;42.050;-8.660;2022-10-26T04:20:32;12.23;;;2.40;;
71003;SDS011;59025;42.050;-8.660;2022-10-26T04:23:02;9.77;;;2.10;;
71003;SDS011;59025;42.050;-8.660;2022-10-26T04:25:31;13.77;;;2.10;;
71003;SDS011;59025;42.050;-8.660;2022-10-26T04:27:59;11.45;;;1.80;;
71003;SDS011;59025;42.050;-8.660;2022-10-26T04:30:29;13.27;;;1.80;;
71003;SDS011;59025;42.050;-8.660;2022-10-26T04:32:57;12.68;;;1.80;;
71003;SDS011;59025;42.050;-8.660;2022-10-26T04:35:25;13.82;;;2.05;;
71003;SDS011;59025;42.050;-8.660;2022-10-26T04:37:55;12.27;;;2.08;;
71003;SDS011;59025;42.050;-8.660;2022-10-26T04:40:24;14.40;;;1.85;;
71003;SDS011;59025;42.050;-8.660;2022-10-26T04:42:52;13.70;;;1.93;;
71003;SDS011;59025;42.050;-8.660;2022-10-26T04:45:20;14.07;;;1.80;;
71003;SDS011;59025;42.050;-8.660;2022-10-26T04:47:58;10.80;;;1.80;;
71003;SDS011;59025;42.050;-8.660;2022-10-26T04:50:28;12.98;;;2.22;;
71003;SDS011;59025;42.050;-8.660;2022-10-26T04:52:55;9.68;;;2.15;;
71003;SDS011;59025;42.050;-8.660;2022-10-26T04:55:23;15.47;;;2.10;;
71003;SDS011;59025;42.050;-8.660;2022-10-26T04:57:50;10.18;;;2.00;;
71003;SDS011;59025;42.050;-8.660;2022-10-26T05:00:18;9.07;;;2.58;;
71003;SDS011;59025;42.050;-8.660;2022-10-26T05:02:46;15.93;;;2.85;;
71003;SDS011;59025;42.050;-8.660;2022-10-26T05:05:15;15.50;;;2.60;;
71003;SDS011;59025;42.050;-8.660;2022-10-26T05:07:42;13.97;;;3.33;;
71003;SDS011;59025;42.050;-8.660;2022-10-26T05:10:11;12.90;;;2.20;;
71003;SDS011;59025;42.050;-8.660;2022-10-26T05:12:39;11.18;;;2.28;;
71003;SDS011;59025;42.050;-8.660;2022-10-26T05:15:07;16.55;;;3.00;;
71003;SDS011;59025;42.050;-8.660;2022-10-26T05:17:36;11.80;;;2.40;;
71003;SDS011;59025;42.050;-8.660;2022-10-26T05:20:04;10.90;;;2.40;;
71003;SDS011;59025;42.050;-8.660;2022-10-26T05:22:36;16.48;;;3.13;;
71003;SDS011;59025;42.050;-8.660;2022-10-26T05:25:06;13.90;;;2.92;;
71003;SDS011;59025;42.050;-8.660;2022-10-26T05:27:34;14.90;;;2.85;;
71003;SDS011;59025;42.050;-8.660;2022-10-26T05:30:01;19.73;;;2.67;;
71003;SDS011;59025;42.050;-8.660;2022-10-26T05:32:29;11.07;;;2.60;;
71003;SDS011;59025;42.050;-8.660;2022-10-26T05:34:56;12.15;;;2.83;;
71003;SDS011;59025;42.050;-8.660;2022-10-26T05:37:27;12.93;;;2.95;;
71003;SDS011;59025;42.050;-8.660;2022-10-26T05:39:56;16.25;;;2.95;;
71003;SDS011;59025;42.050;-8.660;2022-10-26T05:42:23;13.98;;;2.58;;
71003;SDS011;59025;42.050;-8.660;2022-10-26T05:44:51;12.63;;;2.50;;
71003;SDS011;59025;42.050;-8.660;2022-10-26T05:47:18;9.63;;;2.60;;
71003;SDS011;59025;42.050;-8.660;2022-10-26T05:49:46;10.35;;;2.80;;
71003;SDS011;59025;42.050;-8.660;2022-10-26T05:52:13;13.60;;;2.60;;
71003;SDS011;59025;42.050;-8.660;2022-10-26T05:54:41;18.05;;;3.00;;
71003;SDS011;59025;42.050;-8.660;2022-10-26T05:57:12;12.47;;;2.73;;
71003;SDS011;59025;42.050;-8.660;2022-10-26T05:59:40;17.38;;;3.00;;
71003;SDS011;59025;42.050;-8.660;2022-10-26T06:02:09;15.15;;;2.78;;
71003;SDS011;59025;42.050;-8.660;2022-10-26T06:04:45;12.40;;;2.70;;
71003;SDS011;59025;42.050;-8.660;2022-10-26T06:07:14;11.25;;;2.80;;
71003;SDS011;59025;42.050;-8.660;2022-10-26T06:09:44;15.13;;;3.00;;
71003;SDS011;59025;42.050;-8.660;2022-10-26T06:12:15;15.18;;;3.33;;
71003;SDS011;59025;42.050;-8.660;2022-10-26T06:14:47;12.32;;;2.97;;
71003;SDS011;59025;42.050;-8.660;2022-10-26T06:17:23;12.77;;;3.22;;
71003;SDS011;59025;42.050;-8.660;2022-10-26T06:20:07;9.95;;;2.42;;
71003;SDS011;59025;42.050;-8.660;2022-10-26T06:22:54;11.87;;;3.07;;
71003;SDS011;59025;42.050;-8.660;2022-10-26T06:25:33;13.05;;;3.28;;
71003;SDS011;59025;42.050;-8.660;2022-10-26T06:28:13;10.75;;;2.83;;
71003;SDS011;59025;42.050;-8.660;2022-10-26T06:30:46;10.13;;;2.90;;
71003;SDS011;59025;42.050;-8.660;2022-10-26T06:33:14;13.23;;;2.60;;
71003;SDS011;59025;42.050;-8.660;2022-10-26T06:35:43;7.53;;;2.50;;
71003;SDS011;59025;42.050;-8.660;2022-10-26T06:38:17;9.30;;;2.70;;
71003;SDS011;59025;42.050;-8.660;2022-10-26T06:40:48;10.30;;;2.83;;
71003;SDS011;59025;42.050;-8.660;2022-10-26T06:43:21;11.48;;;2.92;;
71003;SDS011;59025;42.050;-8.660;2022-10-26T06:45:53;9.25;;;2.72;;
71003;SDS011;59025;42.050;-8.660;2022-10-26T06:48:29;8.67;;;2.00;;
71003;SDS011;59025;42.050;-8.660;2022-10-26T06:51:06;14.27;;;2.47;;
71003;SDS011;59025;42.050;-8.660;2022-10-26T06:53:40;8.80;;;2.28;;
71003;SDS011;59025;42.050;-8.660;2022-10-26T06:56:13;12.57;;;2.67;;
71003;SDS011;59025;42.050;-8.660;2022-10-26T06:58:44;13.13;;;2.85;;
71003;SDS011;59025;42.050;-8.660;2022-10-26T07:01:14;7.63;;;2.37;;
71003;SDS011;59025;42.050;-8.660;2022-10-26T07:03:42;7.13;;;2.30;;
71003;SDS011;59025;42.050;-8.660;2022-10-26T07:06:10;11.68;;;2.10;;
71003;SDS011;59025;42.050;-8.660;2022-10-26T07:08:37;11.23;;;2.40;;
71003;SDS011;59025;42.050;-8.660;2022-10-26T07:11:05;10.90;;;3.45;;
71003;SDS011;59025;42.050;-8.660;2022-10-26T07:13:33;10.17;;;3.07;;
71003;SDS011;59025;42.050;-8.660;2022-10-26T07:16:02;13.65;;;2.08;;
71003;SDS011;59025;42.050;-8.660;2022-10-26T07:18:30;7.40;;;1.98;;
71003;SDS011;59025;42.050;-8.660;2022-10-26T07:20:57;8.60;;;2.55;;
71003;SDS011;59025;42.050;-8.660;2022-10-26T07:23:25;6.75;;;1.73;;
71003;SDS011;59025;42.050;-8.660;2022-10-26T07:25:53;6.97;;;1.83;;
71003;SDS011;59025;42.050;-8.660;2022-10-26T07:28:20;10.20;;;2.08;;
71003;SDS011;59025;42.050;-8.660;2022-10-26T07:30:49;14.32;;;2.42;;
71003;SDS011;59025;42.050;-8.660;2022-10-26T07:33:18;6.63;;;2.03;;
71003;SDS011;59025;42.050;-8.660;2022-10-26T07:35:46;12.25;;;2.17;;
71003;SDS011;59025;42.050;-8.660;2022-10-26T07:38:13;12.10;;;2.27;;
71003;SDS011;59025;42.050;-8.660;2022-10-26T07:40:41;5.72;;;1.95;;
71003;SDS011;59025;42.050;-8.660;2022-10-26T07:43:08;7.45;;;1.73;;
71003;SDS011;59025;42.050;-8.660;2022-10-26T07:45:36;6.65;;;1.50;;
71003;SDS011;59025;42.050;-8.660;2022-10-26T07:48:05;9.45;;;1.60;;
71003;SDS011;59025;42.050;-8.660;2022-10-26T07:50:34;6.83;;;1.90;;
71003;SDS011;59025;42.050;-8.660;2022-10-26T07:53:01;6.75;;;1.50;;
71003;SDS011;59025;42.050;-8.660;2022-10-26T07:55:29;10.52;;;2.72;;
71003;SDS011;59025;42.050;-8.660;2022-10-26T07:57:57;7.15;;;1.70;;
71003;SDS011;59025;42.050;-8.660;2022-10-26T08:00:24;5.80;;;1.73;;
71003;SDS011;59025;42.050;-8.660;2022-10-26T08:02:53;7.93;;;2.43;;
71003;SDS011;59025;42.050;-8.660;2022-10-26T08:05:20;7.05;;;2.00;;
71003;SDS011;59025;42.050;-8.660;2022-10-26T08:07:49;8.10;;;2.17;;
71003;SDS011;59025;42.050;-8.660;2022-10-26T08:10:17;5.75;;;2.17;;
71003;SDS011;59025;42.050;-8.660;2022-10-26T08:12:44;8.65;;;2.38;;
71003;SDS011;59025;42.050;-8.660;2022-10-26T08:15:12;6.77;;;2.27;;
71003;SDS011;59025;42.050;-8.660;2022-10-26T08:17:39;9.77;;;2.60;;
71003;SDS011;59025;42.050;-8.660;2022-10-26T08:20:07;8.85;;;2.60;;
71003;SDS011;59025;42.050;-8.660;2022-10-26T08:22:35;6.13;;;2.42;;
71003;SDS011;59025;42.050;-8.660;2022-10-26T08:25:08;6.15;;;2.53;;
71003;SDS011;59025;42.050;-8.660;2022-10-26T08:27:35;8.03;;;2.30;;
71003;SDS011;59025;42.050;-8.660;2022-10-26T08:30:03;5.40;;;1.92;;
71003;SDS011;59025;42.050;-8.660;2022-10-26T08:32:31;5.78;;;2.92;;
71003;SDS011;59025;42.050;-8.660;2022-10-26T08:34:59;5.55;;;2.30;;
71003;SDS011;59025;42.050;-8.660;2022-10-26T08:37:26;9.02;;;2.58;;
71003;SDS011;59025;42.050;-8.660;2022-10-26T08:39:54;5.90;;;1.87;;
71003;SDS011;59025;42.050;-8.660;2022-10-26T08:42:23;6.93;;;2.00;;
71003;SDS011;59025;42.050;-8.660;2022-10-26T08:44:56;6.53;;;2.22;;
71003;SDS011;59025;42.050;-8.660;2022-10-26T08:47:27;5.93;;;2.20;;
71003;SDS011;59025;42.050;-8.660;2022-10-26T08:49:58;4.85;;;2.00;;
71003;SDS011;59025;42.050;-8.660;2022-10-26T08:52:31;5.30;;;2.20;;
71003;SDS011;59025;42.050;-8.660;2022-10-26T08:55:04;4.55;;;2.30;;
71003;SDS011;59025;42.050;-8.660;2022-10-26T08:57:40;4.25;;;2.10;;
71003;SDS011;59025;42.050;-8.660;2022-10-26T09:00:10;6.40;;;2.30;;
71003;SDS011;59025;42.050;-8.660;2022-10-26T09:02:40;11.93;;;2.60;;
71003;SDS011;59025;42.050;-8.660;2022-10-26T09:05:11;16.00;;;5.07;;
71003;SDS011;59025;42.050;-8.660;2022-10-26T09:07:49;22.15;;;6.35;;
71003;SDS011;59025;42.050;-8.660;2022-10-26T09:10:31;14.43;;;4.50;;
71003;SDS011;59025;42.050;-8.660;2022-10-26T09:13:07;9.68;;;3.72;;
71003;SDS011;59025;42.050;-8.660;2022-10-26T09:15:46;12.13;;;3.80;;
71003;SDS011;59025;42.050;-8.660;2022-10-26T09:18:26;13.10;;;4.10;;
71003;SDS011;59025;42.050;-8.660;2022-10-26T09:21:06;11.38;;;4.00;;
71003;SDS011;59025;42.050;-8.660;2022-10-26T09:23:52;9.02;;;3.40;;
71003;SDS011;59025;42.050;-8.660;2022-10-26T09:26:30;12.13;;;3.60;;
71003;SDS011;59025;42.050;-8.660;2022-10-26T09:29:05;12.98;;;3.83;;
71003;SDS011;59025;42.050;-8.660;2022-10-26T09:31:39;9.50;;;3.90;;
71003;SDS011;59025;42.050;-8.660;2022-10-26T09:34:14;12.57;;;3.83;;
71003;SDS011;59025;42.050;-8.660;2022-10-26T09:36:46;13.50;;;4.32;;
71003;SDS011;59025;42.050;-8.660;2022-10-26T09:39:18;16.77;;;5.70;;
71003;SDS011;59025;42.050;-8.660;2022-10-26T09:41:54;14.25;;;5.78;;
71003;SDS011;59025;42.050;-8.660;2022-10-26T09:44:28;18.77;;;6.00;;
71003;SDS011;59025;42.050;-8.660;2022-10-26T09:47:00;18.08;;;5.93;;
71003;SDS011;59025;42.050;-8.660;2022-10-26T09:49:34;16.40;;;4.65;;
71003;SDS011;59025;42.050;-8.660;2022-10-26T09:52:07;13.35;;;4.20;;
71003;SDS011;59025;42.050;-8.660;2022-10-26T09:54:34;13.10;;;4.65;;
71003;SDS011;59025;42.050;-8.660;2022-10-26T09:57:02;18.03;;;5.67;;
71003;SDS011;59025;42.050;-8.660;2022-10-26T09:59:32;14.30;;;4.82;;
71003;SDS011;59025;42.050;-8.660;2022-10-26T10:02:14;16.00;;;7.20;;
71003;SDS011;59025;42.050;-8.660;2022-10-26T10:04:58;13.65;;;5.78;;
71003;SDS011;59025;42.050;-8.660;2022-10-26T10:07:26;11.32;;;4.25;;
71003;SDS011;59025;42.050;-8.660;2022-10-26T10:12:41;15.65;;;3.78;;
71003;SDS011;59025;42.050;-8.660;2022-10-26T10:15:16;15.45;;;4.00;;
71003;SDS011;59025;42.050;-8.660;2022-10-26T10:17:46;13.15;;;4.35;;
71003;SDS011;59025;42.050;-8.660;2022-10-26T10:20:18;13.90;;;3.53;;
71003;SDS011;59025;42.050;-8.660;2022-10-26T10:22:55;11.30;;;3.20;;
71003;SDS011;59025;42.050;-8.660;2022-10-26T10:25:31;17.98;;;3.63;;
71003;SDS011;59025;42.050;-8.660;2022-10-26T10:28:18;11.85;;;4.15;;
71003;SDS011;59025;42.050;-8.660;2022-10-26T10:30:55;13.35;;;3.08;;
71003;SDS011;59025;42.050;-8.660;2022-10-26T10:33:31;14.35;;;3.05;;
71003;SDS011;59025;42.050;-8.660;2022-10-26T10:36:01;9.00;;;2.83;;
71003;SDS011;59025;42.050;-8.660;2022-10-26T10:38:35;15.95;;;2.72;;
71003;SDS011;59025;42.050;-8.660;2022-10-26T10:41:05;10.77;;;2.63;;
71003;SDS011;59025;42.050;-8.660;2022-10-26T10:43:45;15.57;;;3.05;;
71003;SDS011;59025;42.050;-8.660;2022-10-26T10:46:19;9.60;;;2.60;;
71003;SDS011;59025;42.050;-8.660;2022-10-26T10:48:51;14.00;;;3.17;;
71003;SDS011;59025;42.050;-8.660;2022-10-26T10:51:21;16.00;;;3.35;;
71003;SDS011;59025;42.050;-8.660;2022-10-26T10:53:51;14.45;;;3.20;;
71003;SDS011;59025;42.050;-8.660;2022-10-26T10:56:23;9.15;;;2.50;;
71003;SDS011;59025;42.050;-8.660;2022-10-26T10:59:06;10.77;;;2.30;;
71003;SDS011;59025;42.050;-8.660;2022-10-26T11:01:56;10.33;;;2.83;;
71003;SDS011;59025;42.050;-8.660;2022-10-26T11:04:46;15.57;;;3.00;;
71003;SDS011;59025;42.050;-8.660;2022-10-26T11:07:25;11.00;;;2.83;;
71003;SDS011;59025;42.050;-8.660;2022-10-26T11:09:56;10.40;;;2.97;;
71003;SDS011;59025;42.050;-8.660;2022-10-26T11:12:28;9.75;;;2.40;;
71003;SDS011;59025;42.050;-8.660;2022-10-26T11:14:58;9.80;;;2.47;;
71003;SDS011;59025;42.050;-8.660;2022-10-26T11:17:32;11.05;;;2.60;;
71003;SDS011;59025;42.050;-8.660;2022-10-26T11:20:16;8.63;;;2.20;;
71003;SDS011;59025;42.050;-8.660;2022-10-26T11:22:55;14.70;;;2.47;;
71003;SDS011;59025;42.050;-8.660;2022-10-26T11:25:29;7.70;;;1.98;;
71003;SDS011;59025;42.050;-8.660;2022-10-26T11:28:02;10.93;;;2.80;;
71003;SDS011;59025;42.050;-8.660;2022-10-26T11:30:37;11.25;;;2.90;;
71003;SDS011;59025;42.050;-8.660;2022-10-26T11:33:14;8.50;;;2.40;;
71003;SDS011;59025;42.050;-8.660;2022-10-26T11:35:45;7.45;;;2.25;;
71003;SDS011;59025;42.050;-8.660;2022-10-26T11:38:22;13.40;;;2.30;;
71003;SDS011;59025;42.050;-8.660;2022-10-26T11:40:59;8.53;;;2.67;;
71003;SDS011;59025;42.050;-8.660;2022-10-26T11:43:33;9.73;;;2.20;;
71003;SDS011;59025;42.050;-8.660;2022-10-26T11:46:05;7.78;;;2.00;;
71003;SDS011;59025;42.050;-8.660;2022-10-26T11:48:42;8.93;;;2.00;;
71003;SDS011;59025;42.050;-8.660;2022-10-26T11:51:17;6.22;;;2.10;;
71003;SDS011;59025;42.050;-8.660;2022-10-26T11:53:49;5.73;;;2.20;;
71003;SDS011;59025;42.050;-8.660;2022-10-26T11:56:20;8.93;;;2.42;;
71003;SDS011;59025;42.050;-8.660;2022-10-26T11:58:53;10.55;;;2.58;;
71003;SDS011;59025;42.050;-8.660;2022-10-26T12:01:23;7.72;;;2.13;;
71003;SDS011;59025;42.050;-8.660;2022-10-26T12:03:55;9.13;;;2.08;;
71003;SDS011;59025;42.050;-8.660;2022-10-26T12:06:27;6.73;;;2.00;;
71003;SDS011;59025;42.050;-8.660;2022-10-26T12:08:58;9.73;;;2.20;;
71003;SDS011;59025;42.050;-8.660;2022-10-26T12:11:34;11.75;;;2.97;;
71003;SDS011;59025;42.050;-8.660;2022-10-26T12:14:13;9.07;;;2.35;;
71003;SDS011;59025;42.050;-8.660;2022-10-26T12:16:50;9.98;;;2.30;;
71003;SDS011;59025;42.050;-8.660;2022-10-26T12:19:30;7.90;;;1.90;;
71003;SDS011;59025;42.050;-8.660;2022-10-26T12:22:06;8.98;;;2.47;;
71003;SDS011;59025;42.050;-8.660;2022-10-26T12:24:40;9.90;;;2.17;;
71003;SDS011;59025;42.050;-8.660;2022-10-26T12:30:12;9.88;;;2.20;;
71003;SDS011;59025;42.050;-8.660;2022-10-26T12:32:49;8.00;;;2.10;;
71003;SDS011;59025;42.050;-8.660;2022-10-26T12:35:32;11.27;;;2.13;;
71003;SDS011;59025;42.050;-8.660;2022-10-26T12:41:11;6.03;;;2.17;;
71003;SDS011;59025;42.050;-8.660;2022-10-26T12:43:44;8.25;;;2.40;;
71003;SDS011;59025;42.050;-8.660;2022-10-26T12:58:41;6.72;;;2.10;;
71003;SDS011;59025;42.050;-8.660;2022-10-26T13:04:51;4.88;;;1.83;;
71003;SDS011;59025;42.050;-8.660;2022-10-26T13:07:34;13.25;;;2.20;;
71003;SDS011;59025;42.050;-8.660;2022-10-26T13:10:05;6.95;;;1.95;;
71003;SDS011;59025;42.050;-8.660;2022-10-26T13:12:46;9.50;;;2.33;;
71003;SDS011;59025;42.050;-8.660;2022-10-26T13:15:20;7.27;;;1.90;;
71003;SDS011;59025;42.050;-8.660;2022-10-26T13:17:54;6.57;;;1.83;;
71003;SDS011;59025;42.050;-8.660;2022-10-26T13:20:25;9.18;;;2.22;;
71003;SDS011;59025;42.050;-8.660;2022-10-26T13:22:54;7.13;;;1.98;;
71003;SDS011;59025;42.050;-8.660;2022-10-26T13:25:24;5.68;;;1.63;;
71003;SDS011;59025;42.050;-8.660;2022-10-26T13:28:00;6.73;;;1.93;;
71003;SDS011;59025;42.050;-8.660;2022-10-26T13:30:34;6.20;;;1.95;;
71003;SDS011;59025;42.050;-8.660;2022-10-26T13:33:30;6.22;;;1.90;;
71003;SDS011;59025;42.050;-8.660;2022-10-26T13:36:06;8.63;;;2.33;;
71003;SDS011;59025;42.050;-8.660;2022-10-26T13:38:43;6.32;;;1.77;;
71003;SDS011;59025;42.050;-8.660;2022-10-26T13:41:20;5.80;;;2.30;;
71003;SDS011;59025;42.050;-8.660;2022-10-26T13:43:52;8.43;;;1.77;;
71003;SDS011;59025;42.050;-8.660;2022-10-26T13:46:26;7.90;;;2.03;;
71003;SDS011;59025;42.050;-8.660;2022-10-26T13:48:58;9.68;;;2.05;;
71003;SDS011;59025;42.050;-8.660;2022-10-26T13:51:34;6.43;;;2.17;;
71003;SDS011;59025;42.050;-8.660;2022-10-26T13:54:12;6.13;;;1.80;;
71003;SDS011;59025;42.050;-8.660;2022-10-26T13:56:56;8.27;;;1.80;;
71003;SDS011;59025;42.050;-8.660;2022-10-26T13:59:30;9.52;;;2.45;;
71003;SDS011;59025;42.050;-8.660;2022-10-26T14:02:06;7.97;;;1.90;;
71003;SDS011;59025;42.050;-8.660;2022-10-26T14:04:40;5.63;;;1.67;;
71003;SDS011;59025;42.050;-8.660;2022-10-26T14:07:14;6.87;;;2.27;;
71003;SDS011;59025;42.050;-8.660;2022-10-26T14:09:53;5.82;;;2.22;;
71003;SDS011;59025;42.050;-8.660;2022-10-26T14:12:25;6.07;;;2.00;;
71003;SDS011;59025;42.050;-8.660;2022-10-26T14:14:55;4.75;;;1.50;;
71003;SDS011;59025;42.050;-8.660;2022-10-26T14:17:27;7.35;;;2.00;;
71003;SDS011;59025;42.050;-8.660;2022-10-26T14:19:54;7.40;;;2.00;;
71003;SDS011;59025;42.050;-8.660;2022-10-26T14:22:23;5.63;;;2.08;;
71003;SDS011;59025;42.050;-8.660;2022-10-26T14:24:53;6.22;;;1.90;;
71003;SDS011;59025;42.050;-8.660;2022-10-26T14:27:22;8.05;;;3.03;;
71003;SDS011;59025;42.050;-8.660;2022-10-26T14:29:53;6.68;;;1.95;;
71003;SDS011;59025;42.050;-8.660;2022-10-26T14:32:24;7.53;;;1.90;;
71003;SDS011;59025;42.050;-8.660;2022-10-26T14:34:53;9.20;;;2.88;;
71003;SDS011;59025;42.050;-8.660;2022-10-26T14:37:24;7.47;;;2.10;;
71003;SDS011;59025;42.050;-8.660;2022-10-26T14:40:01;7.38;;;2.22;;
71003;SDS011;59025;42.050;-8.660;2022-10-26T14:42:32;5.50;;;2.15;;
71003;SDS011;59025;42.050;-8.660;2022-10-26T14:45:04;7.63;;;2.23;;
71003;SDS011;59025;42.050;-8.660;2022-10-26T14:47:32;4.68;;;2.15;;
71003;SDS011;59025;42.050;-8.660;2022-10-26T14:50:02;4.07;;;1.90;;
71003;SDS011;59025;42.050;-8.660;2022-10-26T14:52:30;6.55;;;2.30;;
71003;SDS011;59025;42.050;-8.660;2022-10-26T14:55:01;5.95;;;2.10;;
71003;SDS011;59025;42.050;-8.660;2022-10-26T14:57:31;5.87;;;2.23;;
71003;SDS011;59025;42.050;-8.660;2022-10-26T15:00:02;7.47;;;2.25;;
71003;SDS011;59025;42.050;-8.660;2022-10-26T15:02:38;7.05;;;2.58;;
71003;SDS011;59025;42.050;-8.660;2022-10-26T15:05:16;6.75;;;2.30;;
71003;SDS011;59025;42.050;-8.660;2022-10-26T15:07:45;10.10;;;2.60;;
71003;SDS011;59025;42.050;-8.660;2022-10-26T15:13:19;7.22;;;2.08;;
71003;SDS011;59025;42.050;-8.660;2022-10-26T15:15:51;10.32;;;2.50;;
71003;SDS011;59025;42.050;-8.660;2022-10-26T15:18:20;6.63;;;2.40;;
71003;SDS011;59025;42.050;-8.660;2022-10-26T15:20:51;6.75;;;2.20;;
71003;SDS011;59025;42.050;-8.660;2022-10-26T15:23:20;8.13;;;2.40;;